createdAt,value
2023-02-04T00:01:08.911Z,29.15
2023-02-04T00:03:36.861Z,30.20
2023-02-04T00:06:05.235Z,30.50
2023-02-04T00:08:32.353Z,31.60
2023-02-04T00:10:59.253Z,32.22
2023-02-04T00:13:26.271Z,34.05
2023-02-04T00:15:53.284Z,31.60
2023-02-04T00:18:22.050Z,32.28
2023-02-04T00:20:49.039Z,31.98
2023-02-04T00:23:15.974Z,31.90
2023-02-04T00:25:42.887Z,33.80
2023-02-04T00:28:09.885Z,35.53
2023-02-04T00:30:38.069Z,33.10
2023-02-04T00:33:05.103Z,32.70
2023-02-04T00:35:32.125Z,24.35
2023-02-04T00:37:59.194Z,19.30
2023-02-04T00:40:26.056Z,17.42
2023-02-04T00:42:53.316Z,15.00
2023-02-04T00:45:20.383Z,13.60
2023-02-04T00:47:47.837Z,12.32
2023-02-04T00:50:15.168Z,12.68
2023-02-04T00:52:44.885Z,13.40
2023-02-04T00:55:12.371Z,13.13
2023-02-04T00:57:40.809Z,12.00
2023-02-04T01:00:09.192Z,10.40
2023-02-04T01:02:36.208Z,8.73
2023-02-04T01:05:03.379Z,5.25
2023-02-04T01:07:30.424Z,4.70
2023-02-04T01:09:57.378Z,5.80
2023-02-04T01:12:27.438Z,5.20
2023-02-04T01:14:55.810Z,5.55
2023-02-04T01:17:22.704Z,5.60
2023-02-04T01:19:49.748Z,6.03
2023-02-04T01:22:17.746Z,4.68
2023-02-04T01:24:44.833Z,5.13
2023-02-04T01:27:30.409Z,4.82
2023-02-04T01:29:57.391Z,4.13
2023-02-04T01:32:24.398Z,4.35
2023-02-04T01:34:52.580Z,3.83
2023-02-04T01:37:22.788Z,3.95
2023-02-04T01:39:50.345Z,4.50
2023-02-04T01:42:17.516Z,4.90
2023-02-04T01:44:48.219Z,4.68
2023-02-04T01:47:15.395Z,4.63
2023-02-04T01:49:42.992Z,4.72
2023-02-04T01:52:12.752Z,4.55
2023-02-04T01:54:39.989Z,4.70
2023-02-04T01:57:13.779Z,4.15
2023-02-04T01:59:43.825Z,3.97
2023-02-04T02:02:43.442Z,4.20
2023-02-04T02:05:15.769Z,3.72
2023-02-04T02:10:13.521Z,3.67
2023-02-04T02:12:41.486Z,3.50
2023-02-04T02:15:10.216Z,3.67
2023-02-04T02:17:37.646Z,4.05
2023-02-04T02:20:08.038Z,3.42
2023-02-04T02:22:42.069Z,4.25
2023-02-04T02:25:13.112Z,4.15
2023-02-04T02:27:40.480Z,3.85
2023-02-04T02:30:09.745Z,3.95
2023-02-04T02:32:37.801Z,4.65
2023-02-04T02:35:05.824Z,4.18
2023-02-04T02:37:33.191Z,4.60
2023-02-04T02:40:00.249Z,4.55
2023-02-04T02:42:27.283Z,5.20
2023-02-04T02:44:55.984Z,5.15
2023-02-04T02:47:24.175Z,5.30
2023-02-04T02:49:54.631Z,5.70
2023-02-04T02:52:25.110Z,5.50
2023-02-04T02:54:53.819Z,5.28
2023-02-04T02:57:22.647Z,5.25
2023-02-04T02:59:50.013Z,5.85
2023-02-04T03:02:22.859Z,5.72
2023-02-04T03:04:56.544Z,5.28
2023-02-04T03:07:27.208Z,5.78
2023-02-04T03:09:54.607Z,6.18
2023-02-04T03:12:21.647Z,6.05
2023-02-04T03:14:49.081Z,5.93
2023-02-04T03:17:16.556Z,6.00
2023-02-04T03:19:43.837Z,6.10
2023-02-04T03:22:11.293Z,6.40
2023-02-04T03:24:38.376Z,6.65
2023-02-04T03:27:05.760Z,6.30
2023-02-04T03:29:35.303Z,5.38
2023-02-04T03:32:03.240Z,6.53
2023-02-04T03:34:31.981Z,6.70
2023-02-04T03:36:58.886Z,8.45
2023-02-04T03:39:25.845Z,6.85
2023-02-04T03:41:53.507Z,8.13
2023-02-04T03:44:21.984Z,7.38
2023-02-04T03:46:49.070Z,7.40
2023-02-04T03:49:16.089Z,7.07
2023-02-04T03:51:43.074Z,6.53
2023-02-04T03:54:10.012Z,7.00
2023-02-04T03:56:38.003Z,7.82
2023-02-04T03:59:05.180Z,7.78
2023-02-04T04:01:32.765Z,8.10
2023-02-04T04:04:00.377Z,8.55
2023-02-04T04:06:27.505Z,8.90
2023-02-04T04:08:55.550Z,7.43
2023-02-04T04:11:22.495Z,8.25
2023-02-04T04:13:49.677Z,8.27
2023-02-04T04:16:17.310Z,10.00
2023-02-04T04:18:44.351Z,9.40
2023-02-04T04:21:12.038Z,9.32
2023-02-04T04:23:39.136Z,9.38
2023-02-04T04:26:06.456Z,9.57
2023-02-04T04:28:33.542Z,9.57
2023-02-04T04:31:00.640Z,9.27
2023-02-04T04:33:27.693Z,10.55
2023-02-04T04:35:54.950Z,11.80
2023-02-04T04:38:22.211Z,10.98
2023-02-04T04:40:49.587Z,10.55
2023-02-04T04:43:19.919Z,11.20
2023-02-04T04:45:47.011Z,10.38
2023-02-04T04:48:14.094Z,11.15
2023-02-04T04:50:41.118Z,11.45
2023-02-04T04:53:11.325Z,10.88
2023-02-04T04:55:38.663Z,9.85
2023-02-04T04:58:07.569Z,10.23
2023-02-04T05:00:35.306Z,10.70
2023-02-04T05:03:02.323Z,10.23
2023-02-04T05:05:30.728Z,10.10
2023-02-04T05:07:58.564Z,9.55
2023-02-04T05:10:25.605Z,9.00
2023-02-04T05:12:54.109Z,9.05
2023-02-04T05:15:21.196Z,8.77
2023-02-04T05:17:48.366Z,8.68
2023-02-04T05:20:15.622Z,8.82
2023-02-04T05:22:42.868Z,8.68
2023-02-04T05:25:12.995Z,9.77
2023-02-04T05:27:42.375Z,10.90
2023-02-04T05:30:14.277Z,11.85
2023-02-04T05:32:41.577Z,11.00
2023-02-04T05:35:08.859Z,12.38
2023-02-04T05:37:35.872Z,12.15
2023-02-04T05:40:02.951Z,12.02
2023-02-04T05:42:30.169Z,11.75
2023-02-04T05:44:58.687Z,11.27
2023-02-04T05:47:25.651Z,12.38
2023-02-04T05:49:53.866Z,11.05
2023-02-04T05:52:20.798Z,11.07
2023-02-04T05:54:48.252Z,11.60
2023-02-04T05:57:15.204Z,13.18
2023-02-04T05:59:42.154Z,11.45
2023-02-04T06:02:12.320Z,12.07
2023-02-04T06:04:39.357Z,12.38
2023-02-04T06:07:06.363Z,11.75
2023-02-04T06:09:33.669Z,11.48
2023-02-04T06:12:00.716Z,11.45
2023-02-04T06:14:28.793Z,11.43
2023-02-04T06:16:55.865Z,12.38
2023-02-04T06:19:22.855Z,12.23
2023-02-04T06:21:49.764Z,15.00
2023-02-04T06:24:16.841Z,15.90
2023-02-04T06:26:44.186Z,19.02
2023-02-04T06:29:11.277Z,21.55
2023-02-04T06:31:39.142Z,21.38
2023-02-04T06:34:06.486Z,19.92
2023-02-04T06:36:36.456Z,19.20
2023-02-04T06:39:04.018Z,17.02
2023-02-04T06:41:31.108Z,16.15
2023-02-04T06:43:58.140Z,16.42
2023-02-04T06:46:25.260Z,16.35
2023-02-04T06:48:52.253Z,15.20
2023-02-04T06:51:19.186Z,15.68
2023-02-04T06:53:46.157Z,15.40
2023-02-04T06:56:14.365Z,19.15
2023-02-04T06:58:41.691Z,16.27
2023-02-04T07:01:09.085Z,17.13
2023-02-04T07:03:36.071Z,17.25
2023-02-04T07:06:03.048Z,18.17
2023-02-04T07:08:30.006Z,18.98
2023-02-04T07:10:57.624Z,16.25
2023-02-04T07:13:24.738Z,16.15
2023-02-04T07:15:53.148Z,15.45
2023-02-04T07:18:20.508Z,15.73
2023-02-04T07:20:47.747Z,15.35
2023-02-04T07:23:15.557Z,14.05
2023-02-04T07:25:44.220Z,14.23
2023-02-04T07:28:11.282Z,14.82
2023-02-04T07:30:39.441Z,13.65
2023-02-04T07:33:06.573Z,13.82
2023-02-04T07:35:33.573Z,12.40
2023-02-04T07:38:01.266Z,11.80
2023-02-04T07:40:28.416Z,12.38
2023-02-04T07:42:55.495Z,11.48
2023-02-04T07:45:26.672Z,13.18
2023-02-04T07:47:54.730Z,11.70
2023-02-04T07:50:22.935Z,11.55
2023-02-04T07:52:50.327Z,11.05
2023-02-04T07:55:17.429Z,10.95
2023-02-04T07:57:44.464Z,12.00
2023-02-04T08:00:14.172Z,11.25
2023-02-04T08:02:42.347Z,11.05
2023-02-04T08:05:10.207Z,9.07
2023-02-04T08:07:37.426Z,9.07
2023-02-04T08:10:05.766Z,10.05
2023-02-04T08:12:32.704Z,9.65
2023-02-04T08:15:00.046Z,10.07
2023-02-04T08:17:28.951Z,8.88
2023-02-04T08:19:56.731Z,9.82
2023-02-04T08:22:23.673Z,10.23
2023-02-04T08:24:50.655Z,9.98
2023-02-04T08:27:17.754Z,10.45
2023-02-04T08:29:44.997Z,10.75
2023-02-04T08:32:13.953Z,9.70
2023-02-04T08:34:40.928Z,10.35
2023-02-04T08:37:07.959Z,9.63
2023-02-04T08:39:34.892Z,10.60
2023-02-04T08:42:01.861Z,9.90
2023-02-04T08:44:29.541Z,10.23
2023-02-04T08:46:56.618Z,11.05
2023-02-04T08:49:23.954Z,10.13
2023-02-04T08:51:51.277Z,10.18
2023-02-04T08:54:18.603Z,10.10
2023-02-04T08:56:45.637Z,9.32
2023-02-04T08:59:13.648Z,9.27
2023-02-04T09:01:40.638Z,10.15
2023-02-04T09:04:08.021Z,10.00
2023-02-04T09:06:36.154Z,9.20
2023-02-04T09:09:03.183Z,10.10
2023-02-04T09:11:30.185Z,15.18
2023-02-04T09:13:58.226Z,11.55
2023-02-04T09:16:25.472Z,9.68
2023-02-04T09:18:53.672Z,9.63
2023-02-04T09:21:20.800Z,9.50
2023-02-04T09:23:49.189Z,10.45
2023-02-04T09:26:16.210Z,9.40
2023-02-04T09:28:43.553Z,15.82
2023-02-04T09:31:11.600Z,13.95
2023-02-04T09:33:38.748Z,12.30
2023-02-04T09:36:09.893Z,11.55
2023-02-04T09:38:37.201Z,14.63
2023-02-04T09:41:08.421Z,13.20
2023-02-04T09:43:40.498Z,12.93
2023-02-04T09:46:23.212Z,11.60
2023-02-04T09:48:51.169Z,12.13
2023-02-04T09:51:23.785Z,11.20
2023-02-04T09:53:54.451Z,11.15
2023-02-04T09:56:22.830Z,12.82
2023-02-04T09:58:51.010Z,12.52
2023-02-04T10:01:20.051Z,10.75
2023-02-04T10:03:50.374Z,13.48
2023-02-04T10:06:22.574Z,12.88
2023-02-04T10:08:51.311Z,14.30
2023-02-04T10:11:21.240Z,16.77
2023-02-04T10:13:52.733Z,16.55
2023-02-04T10:16:30.240Z,13.07
2023-02-04T10:19:07.577Z,9.98
2023-02-04T10:21:40.550Z,11.02
2023-02-04T10:24:15.304Z,9.18
2023-02-04T10:26:43.846Z,9.45
2023-02-04T10:29:17.254Z,8.48
2023-02-04T10:31:50.079Z,9.07
2023-02-04T10:34:38.360Z,10.10
2023-02-04T10:37:23.853Z,9.75
2023-02-04T10:39:50.984Z,9.50
2023-02-04T10:42:24.023Z,10.02
2023-02-04T10:44:53.497Z,10.43
2023-02-04T10:47:26.307Z,9.68
2023-02-04T10:49:58.322Z,9.52
2023-02-04T10:52:35.440Z,11.45
2023-02-04T10:55:05.466Z,11.15
2023-02-04T10:57:36.264Z,10.93
2023-02-04T11:00:05.090Z,12.00
2023-02-04T11:02:46.258Z,12.45
2023-02-04T11:05:26.845Z,13.15
2023-02-04T11:07:57.304Z,11.35
2023-02-04T11:10:29.793Z,10.38
2023-02-04T11:12:56.953Z,11.73
2023-02-04T11:16:15.224Z,11.63
2023-02-04T11:18:54.755Z,11.88
2023-02-04T11:21:36.438Z,11.23
2023-02-04T11:24:16.382Z,11.75
2023-02-04T11:26:53.152Z,12.10
2023-02-04T11:29:36.071Z,11.27
2023-02-04T11:32:23.958Z,12.18
2023-02-04T11:34:53.082Z,11.73
2023-02-04T11:37:43.556Z,12.50
2023-02-04T11:40:29.056Z,12.73
2023-02-04T11:43:02.053Z,13.23
2023-02-04T11:45:35.102Z,11.98
2023-02-04T11:48:11.162Z,11.80
2023-02-04T11:50:42.098Z,11.57
2023-02-04T11:53:12.135Z,11.20
2023-02-04T11:55:47.594Z,11.80
2023-02-04T11:58:20.268Z,10.95
2023-02-04T12:00:48.056Z,12.32
2023-02-04T12:03:23.775Z,13.68
2023-02-04T12:05:51.799Z,12.50
2023-02-04T12:08:25.697Z,12.80
2023-02-04T12:11:04.514Z,12.48
2023-02-04T12:13:33.604Z,11.70
2023-02-04T12:16:08.074Z,11.13
2023-02-04T12:18:36.636Z,11.52
2023-02-04T12:21:04.612Z,12.32
2023-02-04T12:23:33.840Z,12.00
2023-02-04T12:26:02.624Z,14.02
2023-02-04T12:28:31.806Z,13.98
2023-02-04T12:30:59.750Z,13.70
2023-02-04T12:33:27.615Z,13.23
2023-02-04T12:35:55.597Z,13.55
2023-02-04T12:38:22.621Z,14.38
2023-02-04T12:40:51.075Z,14.60
2023-02-04T12:43:18.244Z,14.38
2023-02-04T12:45:46.908Z,12.93
2023-02-04T12:48:14.462Z,11.98
2023-02-04T12:50:42.057Z,11.35
2023-02-04T12:53:09.524Z,12.15
2023-02-04T12:55:37.160Z,12.13
2023-02-04T12:58:06.696Z,12.18
2023-02-04T13:00:35.189Z,10.90
2023-02-04T13:03:04.057Z,10.93
2023-02-04T13:05:32.060Z,10.35
2023-02-04T13:07:59.379Z,10.30
2023-02-04T13:10:27.560Z,10.18
2023-02-04T13:12:56.535Z,11.20
2023-02-04T13:15:23.690Z,11.73
2023-02-04T13:17:51.066Z,11.50
2023-02-04T13:20:18.896Z,11.30
2023-02-04T13:22:46.142Z,12.57
2023-02-04T13:25:13.956Z,12.52
2023-02-04T13:27:42.515Z,12.45
2023-02-04T13:30:14.144Z,13.82
2023-02-04T13:32:43.078Z,15.85
2023-02-04T13:35:10.742Z,16.17
2023-02-04T13:37:38.707Z,15.60
2023-02-04T13:40:08.070Z,15.65
2023-02-04T13:42:35.329Z,14.57
2023-02-04T13:45:02.546Z,15.00
2023-02-04T13:47:30.195Z,15.20
2023-02-04T13:49:57.244Z,16.77
2023-02-04T13:52:25.772Z,15.43
2023-02-04T13:54:56.910Z,15.20
2023-02-04T13:57:25.204Z,15.85
2023-02-04T13:59:53.696Z,16.05
2023-02-04T14:02:22.086Z,15.10
2023-02-04T14:04:49.532Z,14.15
2023-02-04T14:07:17.129Z,14.02
2023-02-04T14:09:45.192Z,15.25
2023-02-04T14:12:12.602Z,12.90
2023-02-04T14:14:39.905Z,12.65
2023-02-04T14:17:06.995Z,12.85
2023-02-04T14:19:34.168Z,13.30
2023-02-04T14:22:01.828Z,14.68
2023-02-04T14:24:29.141Z,15.18
2023-02-04T14:26:57.813Z,14.07
2023-02-04T14:29:24.984Z,13.77
2023-02-04T14:31:52.158Z,13.85
2023-02-04T14:34:19.654Z,11.93
2023-02-04T14:36:48.862Z,10.68
2023-02-04T14:39:16.436Z,8.07
2023-02-04T14:41:44.365Z,8.38
2023-02-04T14:44:11.433Z,8.25
2023-02-04T14:46:41.639Z,8.50
2023-02-04T14:49:09.231Z,8.23
2023-02-04T14:51:36.424Z,7.75
2023-02-04T14:54:03.464Z,7.68
2023-02-04T14:56:32.040Z,7.80
2023-02-04T14:58:59.416Z,7.57
2023-02-04T15:01:27.694Z,8.55
2023-02-04T15:03:54.908Z,9.20
2023-02-04T15:06:22.484Z,9.00
2023-02-04T15:08:49.545Z,9.05
2023-02-04T15:11:17.861Z,8.85
2023-02-04T15:13:45.960Z,7.57
2023-02-04T15:16:14.897Z,7.60
2023-02-04T15:18:42.656Z,6.90
2023-02-04T15:21:10.056Z,7.10
2023-02-04T15:23:37.547Z,7.03
2023-02-04T15:26:05.101Z,8.25
2023-02-04T15:28:33.744Z,7.60
2023-02-04T15:31:04.182Z,8.90
2023-02-04T15:33:32.038Z,8.70
2023-02-04T15:36:00.361Z,8.70
2023-02-04T15:38:27.973Z,8.82
2023-02-04T15:40:55.297Z,8.57
2023-02-04T15:43:22.334Z,8.88
2023-02-04T15:45:50.251Z,8.30
2023-02-04T15:48:19.810Z,9.73
2023-02-04T15:50:47.126Z,9.77
2023-02-04T15:53:14.827Z,8.55
2023-02-04T15:55:42.297Z,8.93
2023-02-04T15:58:09.552Z,9.07
2023-02-04T16:00:36.687Z,9.60
2023-02-04T16:03:05.776Z,9.40
2023-02-04T16:05:32.856Z,9.27
2023-02-04T16:07:59.938Z,9.40
2023-02-04T16:10:28.395Z,9.68
2023-02-04T16:13:00.524Z,9.73
2023-02-04T16:15:28.833Z,9.48
2023-02-04T16:17:58.009Z,9.30
2023-02-04T16:20:26.684Z,10.38
2023-02-04T16:22:53.716Z,10.52
2023-02-04T16:25:21.740Z,11.25
2023-02-04T16:27:51.563Z,10.35
2023-02-04T16:30:19.133Z,10.90
2023-02-04T16:32:46.143Z,8.85
2023-02-04T16:35:14.542Z,10.25
2023-02-04T16:37:41.721Z,11.07
2023-02-04T16:40:11.632Z,10.70
2023-02-04T16:42:39.054Z,11.00
2023-02-04T16:45:08.715Z,10.35
2023-02-04T16:47:36.112Z,11.88
2023-02-04T16:50:05.655Z,11.13
2023-02-04T16:52:33.062Z,10.93
2023-02-04T16:55:00.090Z,11.15
2023-02-04T16:57:27.843Z,11.15
2023-02-04T16:59:55.261Z,11.57
2023-02-04T17:02:23.266Z,11.07
2023-02-04T17:04:52.650Z,12.48
2023-02-04T17:07:21.665Z,11.10
2023-02-04T17:09:50.000Z,10.75
2023-02-04T17:12:18.320Z,13.60
2023-02-04T17:14:46.757Z,11.98
2023-02-04T17:17:14.054Z,10.43
2023-02-04T17:19:44.131Z,10.98
2023-02-04T17:22:11.589Z,11.50
2023-02-04T17:24:43.725Z,13.18
2023-02-04T17:27:13.140Z,13.45
2023-02-04T17:29:40.510Z,14.02
2023-02-04T17:32:08.918Z,14.07
2023-02-04T17:34:36.840Z,13.05
2023-02-04T17:37:03.949Z,12.32
2023-02-04T17:39:31.562Z,13.93
2023-02-04T17:41:58.964Z,13.52
2023-02-04T17:44:27.628Z,13.45
2023-02-04T17:46:54.940Z,14.77
2023-02-04T17:49:22.242Z,14.27
2023-02-04T17:51:50.344Z,15.30
2023-02-04T17:54:17.504Z,14.98
2023-02-04T17:56:44.921Z,15.25
2023-02-04T17:59:14.254Z,14.57
2023-02-04T18:01:42.697Z,13.98
2023-02-04T18:04:14.953Z,13.82
2023-02-04T18:06:42.076Z,13.35
2023-02-04T18:09:16.835Z,12.88
2023-02-04T18:11:44.909Z,13.30
2023-02-04T18:14:17.406Z,13.70
2023-02-04T18:16:47.043Z,13.52
2023-02-04T18:19:21.774Z,13.15
2023-02-04T18:21:50.265Z,13.05
2023-02-04T18:24:24.855Z,12.88
2023-02-04T18:26:54.838Z,13.45
2023-02-04T18:29:30.963Z,13.15
2023-02-04T18:32:25.931Z,13.07
2023-02-04T18:34:55.259Z,13.07
2023-02-04T18:37:26.369Z,13.13
2023-02-04T18:40:22.452Z,12.95
2023-02-04T18:43:15.435Z,15.52
2023-02-04T18:45:42.953Z,15.60
2023-02-04T18:48:16.590Z,14.90
2023-02-04T18:50:44.738Z,15.20
2023-02-04T18:53:15.498Z,15.43
2023-02-04T18:55:50.335Z,15.18
2023-02-04T18:58:50.549Z,17.60
2023-02-04T19:01:24.092Z,14.68
2023-02-04T19:03:56.418Z,16.10
2023-02-04T19:09:12.000Z,18.70
2023-02-04T19:11:44.337Z,16.45
2023-02-04T19:14:40.549Z,16.00
2023-02-04T19:17:10.914Z,17.77
2023-02-04T19:19:42.089Z,16.67
2023-02-04T19:22:20.530Z,16.63
2023-02-04T19:24:48.252Z,17.83
2023-02-04T19:27:20.778Z,17.05
2023-02-04T19:29:49.714Z,17.75
2023-02-04T19:32:27.806Z,17.83
2023-02-04T19:35:01.380Z,18.65
2023-02-04T19:37:40.244Z,17.90
2023-02-04T19:40:27.808Z,18.33
2023-02-04T19:43:16.220Z,19.05
2023-02-04T19:45:45.154Z,18.80
2023-02-04T19:48:34.859Z,22.08
2023-02-04T19:51:24.461Z,21.38
2023-02-04T19:54:02.777Z,21.75
2023-02-04T19:56:30.427Z,23.80
2023-02-04T19:58:58.024Z,23.40
2023-02-04T20:01:25.286Z,23.17
2023-02-04T20:03:52.471Z,22.67
2023-02-04T20:06:37.766Z,23.45
2023-02-04T20:09:15.907Z,22.08
2023-02-04T20:12:06.773Z,23.88
2023-02-04T20:15:04.277Z,22.70
2023-02-04T20:17:46.192Z,24.25
2023-02-04T20:20:45.324Z,24.75
2023-02-04T20:23:35.598Z,25.23
2023-02-04T20:26:02.757Z,26.23
2023-02-04T20:28:38.234Z,26.33
2023-02-04T20:31:25.295Z,28.20
2023-02-04T20:33:55.495Z,26.58
2023-02-04T20:36:28.494Z,26.58
2023-02-04T20:39:28.370Z,30.23
2023-02-04T20:42:16.535Z,27.77
2023-02-04T20:44:43.801Z,28.83
2023-02-04T20:47:25.441Z,30.40
2023-02-04T20:50:01.418Z,29.73
2023-02-04T20:52:49.521Z,29.48
2023-02-04T20:55:25.236Z,28.30
2023-02-04T20:58:13.283Z,30.13
2023-02-04T21:00:43.513Z,29.27
2023-02-04T21:03:14.093Z,30.35
2023-02-04T21:05:43.080Z,28.05
2023-02-04T21:08:20.649Z,32.60
2023-02-04T21:10:55.151Z,29.40
2023-02-04T21:13:23.107Z,28.73
2023-02-04T21:15:51.749Z,30.27
2023-02-04T21:18:19.187Z,28.05
2023-02-04T21:20:46.669Z,28.83
2023-02-04T21:23:13.912Z,26.75
2023-02-04T21:25:41.359Z,29.30
2023-02-04T21:28:08.979Z,29.15
2023-02-04T21:30:38.593Z,28.23
2023-02-04T21:33:05.697Z,28.92
2023-02-04T21:35:33.285Z,27.95
2023-02-04T21:38:03.278Z,26.42
2023-02-04T21:40:31.639Z,27.98
2023-02-04T21:42:58.661Z,27.73
2023-02-04T21:45:27.225Z,28.00
2023-02-04T21:47:54.266Z,28.60
2023-02-04T21:50:22.671Z,26.70
2023-02-04T21:52:50.664Z,28.70
2023-02-04T21:55:20.920Z,31.25
2023-02-04T21:57:53.845Z,31.35
2023-02-04T22:00:25.018Z,30.30
2023-02-04T22:02:56.703Z,30.65
2023-02-04T22:05:24.588Z,29.50
2023-02-04T22:07:52.542Z,29.48
2023-02-04T22:10:22.773Z,30.05
2023-02-04T22:12:50.290Z,31.02
2023-02-04T22:15:17.874Z,31.88
2023-02-04T22:17:45.626Z,33.08
2023-02-04T22:20:17.251Z,32.25
2023-02-04T22:22:45.634Z,31.15
2023-02-04T22:25:14.392Z,32.95
2023-02-04T22:27:41.803Z,31.80
2023-02-04T22:30:12.266Z,34.28
2023-02-04T22:32:41.583Z,32.28
2023-02-04T22:35:11.389Z,32.38
2023-02-04T22:37:42.954Z,31.83
2023-02-04T22:40:12.773Z,32.85
2023-02-04T22:42:40.051Z,32.75
2023-02-04T22:45:08.203Z,32.95
2023-02-04T22:47:37.824Z,33.00
2023-02-04T22:50:05.422Z,31.73
2023-02-04T22:52:35.125Z,32.50
2023-02-04T22:55:05.598Z,30.80
2023-02-04T22:57:33.491Z,33.13
2023-02-04T23:00:00.537Z,31.13
2023-02-04T23:02:27.692Z,30.65
2023-02-04T23:04:56.176Z,29.88
2023-02-04T23:07:23.500Z,29.40
2023-02-04T23:09:51.055Z,27.90
2023-02-04T23:12:19.182Z,28.55
2023-02-04T23:14:48.959Z,26.77
2023-02-04T23:17:17.297Z,26.98
2023-02-04T23:19:45.048Z,27.45
2023-02-04T23:22:13.641Z,25.63
2023-02-04T23:24:42.713Z,26.70
2023-02-04T23:27:11.499Z,26.20
2023-02-04T23:29:39.793Z,26.20
2023-02-04T23:32:08.262Z,26.25
2023-02-04T23:34:35.525Z,27.48
2023-02-04T23:37:03.088Z,28.45
2023-02-04T23:39:31.416Z,28.80
2023-02-04T23:41:58.554Z,28.60
2023-02-04T23:44:26.092Z,28.35
2023-02-04T23:46:54.968Z,28.17
2023-02-04T23:49:22.006Z,28.73
2023-02-04T23:51:48.956Z,26.27
2023-02-04T23:54:16.569Z,28.65
2023-02-04T23:56:43.806Z,27.45
2023-02-04T23:59:11.778Z,27.27
